createdAt,value
2018-12-20T00:00:01.446Z,92.68
2018-12-20T00:01:01.539Z,92.57
2018-12-20T00:02:01.507Z,93.19
2018-12-20T00:03:01.407Z,93.19
2018-12-20T00:04:01.507Z,92.27
2018-12-20T00:05:01.486Z,92.99
2018-12-20T00:06:01.389Z,92.99
2018-12-20T00:07:01.557Z,93.30
2018-12-20T00:08:01.461Z,93.09
2018-12-20T00:09:01.335Z,92.88
2018-12-20T00:10:01.542Z,93.09
2018-12-20T00:11:01.319Z,93.71
2018-12-20T00:12:01.412Z,92.16
2018-12-20T00:13:01.409Z,92.68
2018-12-20T00:14:01.307Z,92.57
2018-12-20T00:15:01.388Z,92.78
2018-12-20T00:16:01.377Z,92.99
2018-12-20T00:17:01.252Z,93.19
2018-12-20T00:18:01.265Z,93.60
2018-12-20T00:19:01.227Z,92.37
2018-12-20T00:20:01.303Z,92.06
2018-12-20T00:21:01.343Z,92.47
2018-12-20T00:22:01.339Z,92.37
2018-12-20T00:23:01.183Z,93.50
2018-12-20T00:24:01.168Z,92.47
2018-12-20T00:25:01.251Z,92.16
2018-12-20T00:26:01.178Z,92.37
2018-12-20T00:27:01.158Z,92.27
2018-12-20T00:28:01.280Z,92.31
2018-12-20T00:29:01.142Z,92.47
2018-12-20T00:30:01.188Z,92.88
2018-12-20T00:31:01.142Z,92.37
2018-12-20T00:32:01.124Z,92.16
2018-12-20T00:33:01.075Z,92.21
2018-12-20T00:34:01.180Z,92.41
2018-12-20T00:35:01.115Z,92.57
2018-12-20T00:36:01.099Z,92.61
2018-12-20T00:37:01.112Z,92.72
2018-12-20T00:38:01.165Z,93.34
2018-12-20T00:39:01.058Z,93.60
2018-12-20T00:40:06.455Z,93.09
2018-12-20T00:41:02.125Z,93.24
2018-12-20T00:42:01.076Z,93.34
2018-12-20T00:43:00.979Z,93.34
2018-12-20T00:44:01.003Z,93.34
2018-12-20T00:45:00.954Z,93.24
2018-12-20T00:46:00.951Z,93.03
2018-12-20T00:47:01.034Z,93.24
2018-12-20T00:48:01.061Z,93.24
2018-12-20T00:49:01.107Z,93.24
2018-12-20T00:50:00.896Z,93.24
2018-12-20T00:51:00.911Z,93.24
2018-12-20T00:52:01.108Z,93.30
2018-12-20T00:53:00.985Z,93.19
2018-12-20T00:54:01.005Z,92.93
2018-12-20T00:55:00.911Z,93.30
2018-12-20T00:56:01.026Z,93.50
2018-12-20T00:57:00.909Z,93.30
2018-12-20T00:58:00.820Z,92.88
2018-12-20T00:59:01.003Z,92.16
2018-12-20T01:00:00.987Z,92.68
2018-12-20T01:01:00.802Z,92.33
2018-12-20T01:02:00.995Z,92.02
2018-12-20T01:03:00.755Z,92.33
2018-12-20T01:04:00.792Z,92.33
2018-12-20T01:05:00.747Z,92.02
2018-12-20T01:06:00.759Z,92.02
2018-12-20T01:07:00.839Z,91.40
2018-12-20T01:08:00.821Z,91.50
2018-12-20T01:09:00.689Z,91.40
2018-12-20T01:10:00.759Z,91.40
2018-12-20T01:11:00.742Z,91.50
2018-12-20T01:12:00.769Z,91.19
2018-12-20T01:13:00.756Z,91.19
2018-12-20T01:14:00.660Z,91.30
2018-12-20T01:15:00.723Z,91.19
2018-12-20T01:16:00.827Z,91.25
2018-12-20T01:17:00.681Z,91.25
2018-12-20T01:18:00.645Z,91.05
2018-12-20T01:19:00.598Z,91.56
2018-12-20T01:20:00.754Z,90.84
2018-12-20T01:21:00.578Z,90.33
2018-12-20T01:22:00.661Z,90.22
2018-12-20T01:23:00.695Z,90.84
2018-12-20T01:24:00.573Z,90.43
2018-12-20T01:25:00.549Z,90.67
2018-12-20T01:26:00.604Z,90.73
2018-12-20T01:27:00.532Z,90.64
2018-12-20T01:28:00.676Z,90.73
2018-12-20T01:29:00.481Z,90.84
2018-12-20T01:30:00.498Z,90.64
2018-12-20T01:31:00.468Z,90.64
2018-12-20T01:32:00.477Z,89.71
2018-12-20T01:33:00.543Z,90.01
2018-12-20T01:34:00.422Z,89.61
2018-12-20T01:35:00.429Z,90.33
2018-12-20T01:36:00.458Z,90.01
2018-12-20T01:37:00.389Z,90.12
2018-12-20T01:38:00.425Z,89.91
2018-12-20T01:39:00.376Z,89.46
2018-12-20T01:40:00.409Z,89.97
2018-12-20T01:41:00.355Z,89.50
2018-12-20T01:42:00.346Z,89.56
2018-12-20T01:43:00.333Z,89.56
2018-12-20T01:44:00.448Z,89.87
2018-12-20T01:45:00.415Z,89.46
2018-12-20T01:46:00.292Z,89.67
2018-12-20T01:47:00.300Z,89.46
2018-12-20T01:48:00.401Z,89.87
2018-12-20T01:49:00.413Z,89.56
2018-12-20T01:50:00.316Z,89.56
2018-12-20T01:51:00.288Z,89.77
2018-12-20T01:52:00.316Z,89.56
2018-12-20T01:53:00.419Z,89.77
2018-12-20T01:54:00.312Z,89.67
2018-12-20T01:55:00.244Z,89.56
2018-12-20T01:56:00.373Z,89.87
2018-12-20T01:57:00.239Z,89.56
2018-12-20T01:58:00.219Z,89.56
2018-12-20T01:59:00.305Z,89.56
2018-12-20T02:00:00.167Z,89.97
2018-12-20T02:01:00.152Z,89.67
2018-12-20T02:02:00.282Z,89.67
2018-12-20T02:03:00.132Z,89.77
2018-12-20T02:04:00.108Z,89.46
2018-12-20T02:05:00.136Z,90.18
2018-12-20T02:06:00.094Z,89.67
2018-12-20T02:07:00.082Z,89.67
2018-12-20T02:08:00.072Z,89.67
2018-12-20T02:09:00.098Z,89.77
2018-12-20T02:10:00.063Z,89.77
2018-12-20T02:11:00.034Z,89.56
2018-12-20T02:12:00.016Z,89.67
2018-12-20T02:13:00.187Z,90.01
2018-12-20T02:14:00.116Z,89.36
2018-12-20T02:15:01.708Z,89.87
2018-12-20T02:16:00.181Z,89.15
2018-12-20T02:17:00.054Z,89.67
2018-12-20T02:18:00.037Z,89.56
2018-12-20T02:19:00.073Z,89.77
2018-12-20T02:20:00.196Z,89.87
2018-12-20T02:20:59.967Z,89.67
2018-12-20T02:21:59.983Z,89.97
2018-12-20T02:22:59.904Z,89.56
2018-12-20T02:23:59.914Z,89.87
2018-12-20T02:25:00.008Z,89.56
2018-12-20T02:25:59.881Z,89.87
2018-12-20T02:26:59.867Z,89.67
2018-12-20T02:28:00.051Z,89.97
2018-12-20T02:28:59.853Z,89.87
2018-12-20T02:29:59.981Z,89.97
2018-12-20T02:30:59.815Z,89.67
2018-12-20T02:31:59.819Z,89.56
2018-12-20T02:32:59.848Z,90.01
2018-12-20T02:33:59.995Z,89.81
2018-12-20T02:35:00.032Z,89.77
2018-12-20T02:36:00.043Z,89.29
2018-12-20T02:36:59.965Z,89.40
2018-12-20T02:37:59.819Z,89.61
2018-12-20T02:38:59.985Z,89.91
2018-12-20T02:40:00.146Z,89.71
2018-12-20T02:40:59.736Z,89.40
2018-12-20T02:41:59.791Z,89.61
2018-12-20T02:42:59.800Z,89.50
2018-12-20T02:43:59.680Z,89.71
2018-12-20T02:44:59.703Z,89.40
2018-12-20T02:45:59.697Z,89.81
2018-12-20T02:46:59.674Z,89.50
2018-12-20T02:47:59.654Z,89.50
2018-12-20T02:48:59.725Z,89.50
2018-12-20T02:49:59.727Z,90.33
2018-12-20T02:50:59.969Z,89.50
2018-12-20T02:51:59.692Z,89.71
2018-12-20T02:52:59.753Z,89.29
2018-12-20T02:53:59.662Z,89.61
2018-12-20T02:54:59.670Z,89.61
2018-12-20T02:55:59.656Z,89.61
2018-12-20T02:56:59.721Z,89.61
2018-12-20T02:57:59.650Z,89.61
2018-12-20T02:58:59.553Z,89.61
2018-12-20T02:59:59.528Z,89.61
2018-12-20T03:00:59.619Z,89.61
2018-12-20T03:01:59.598Z,89.81
2018-12-20T03:02:59.683Z,89.61
2018-12-20T03:03:59.470Z,90.01
2018-12-20T03:04:59.598Z,89.50
2018-12-20T03:05:59.719Z,89.61
2018-12-20T03:06:59.570Z,89.61
2018-12-20T03:07:59.630Z,89.61
2018-12-20T03:08:59.451Z,89.71
2018-12-20T03:09:59.414Z,89.81
2018-12-20T03:10:59.400Z,89.61
2018-12-20T03:11:59.385Z,89.61
2018-12-20T03:12:59.433Z,89.71
2018-12-20T03:13:59.604Z,89.91
2018-12-20T03:14:59.577Z,89.71
2018-12-20T03:15:59.374Z,89.71
2018-12-20T03:16:59.345Z,89.40
2018-12-20T03:17:59.355Z,89.50
2018-12-20T03:18:59.310Z,89.71
2018-12-20T03:19:59.448Z,89.71
2018-12-20T03:20:59.414Z,89.19
2018-12-20T03:21:59.358Z,89.61
2018-12-20T03:22:59.490Z,89.29
2018-12-20T03:23:59.384Z,89.29
2018-12-20T03:24:59.241Z,88.47
2018-12-20T03:25:59.255Z,88.47
2018-12-20T03:26:59.247Z,88.47
2018-12-20T03:27:59.472Z,88.47
2018-12-20T03:28:59.203Z,88.74
2018-12-20T03:29:59.388Z,88.68
2018-12-20T03:30:59.192Z,88.53
2018-12-20T03:31:59.211Z,88.84
2018-12-20T03:32:59.245Z,89.05
2018-12-20T03:33:59.172Z,89.05
2018-12-20T03:34:59.135Z,89.09
2018-12-20T03:35:59.174Z,89.05
2018-12-20T03:36:59.116Z,88.84
2018-12-20T03:37:59.265Z,88.74
2018-12-20T03:38:59.171Z,88.57
2018-12-20T03:39:59.289Z,88.57
2018-12-20T03:40:59.106Z,88.89
2018-12-20T03:41:59.059Z,88.64
2018-12-20T03:42:59.099Z,88.74
2018-12-20T03:43:59.065Z,88.99
2018-12-20T03:44:59.241Z,89.40
2018-12-20T03:45:59.222Z,89.29
2018-12-20T03:46:59.272Z,89.29
2018-12-20T03:47:59.157Z,89.91
2018-12-20T03:48:58.988Z,89.77
2018-12-20T03:49:59.033Z,89.50
2018-12-20T03:50:59.020Z,89.19
2018-12-20T03:51:59.056Z,89.09
2018-12-20T03:52:58.976Z,89.50
2018-12-20T03:53:58.950Z,89.29
2018-12-20T03:54:59.146Z,89.09
2018-12-20T03:55:59.161Z,89.29
2018-12-20T03:56:59.174Z,89.40
2018-12-20T03:57:58.919Z,89.91
2018-12-20T03:58:59.128Z,89.29
2018-12-20T03:59:58.883Z,88.53
2018-12-20T04:00:59.109Z,88.74
2018-12-20T04:01:59.133Z,88.74
2018-12-20T04:02:58.933Z,88.74
2018-12-20T04:03:58.868Z,88.53
2018-12-20T04:04:59.061Z,88.64
2018-12-20T04:05:58.822Z,88.84
2018-12-20T04:06:58.793Z,88.74
2018-12-20T04:07:58.919Z,88.64
2018-12-20T04:08:58.809Z,88.64
2018-12-20T04:09:58.846Z,88.84
2018-12-20T04:10:58.787Z,88.53
2018-12-20T04:11:58.872Z,88.64
2018-12-20T04:12:59.046Z,88.43
2018-12-20T04:13:58.713Z,88.64
2018-12-20T04:14:58.875Z,88.64
2018-12-20T04:15:58.902Z,88.64
2018-12-20T04:16:58.717Z,88.74
2018-12-20T04:17:58.928Z,88.74
2018-12-20T04:18:58.767Z,88.43
2018-12-20T04:19:58.654Z,88.64
2018-12-20T04:20:58.691Z,88.84
2018-12-20T04:21:58.883Z,88.12
2018-12-20T04:22:58.625Z,88.33
2018-12-20T04:23:58.647Z,88.74
2018-12-20T04:24:58.617Z,88.33
2018-12-20T04:25:58.589Z,88.23
2018-12-20T04:26:58.577Z,88.84
2018-12-20T04:27:58.626Z,88.43
2018-12-20T04:28:58.599Z,88.64
2018-12-20T04:29:58.594Z,88.84
2018-12-20T04:30:58.613Z,88.74
2018-12-20T04:31:58.688Z,88.74
2018-12-20T04:32:58.581Z,88.23
2018-12-20T04:33:58.650Z,88.74
2018-12-20T04:34:58.605Z,88.64
2018-12-20T04:35:58.517Z,88.23
2018-12-20T04:36:58.482Z,89.15
2018-12-20T04:37:58.458Z,88.23
2018-12-20T04:38:58.490Z,88.64
2018-12-20T04:39:58.438Z,89.15
2018-12-20T04:40:58.593Z,89.15
2018-12-20T04:41:58.444Z,89.15
2018-12-20T04:42:58.416Z,89.05
2018-12-20T04:43:58.483Z,88.74
2018-12-20T04:44:58.405Z,89.15
2018-12-20T04:45:58.559Z,89.15
2018-12-20T04:46:59.600Z,88.74
2018-12-20T04:47:58.433Z,89.25
2018-12-20T04:48:58.353Z,89.25
2018-12-20T04:49:58.651Z,89.25
2018-12-20T04:50:58.566Z,89.15
2018-12-20T04:51:58.348Z,88.64
2018-12-20T04:52:58.395Z,89.15
2018-12-20T04:53:58.512Z,89.15
2018-12-20T04:54:58.430Z,88.74
2018-12-20T04:55:58.314Z,89.25
2018-12-20T04:56:58.374Z,88.64
2018-12-20T04:57:58.607Z,88.95
2018-12-20T04:58:58.358Z,89.15
2018-12-20T04:59:58.266Z,89.15
2018-12-20T05:00:58.540Z,88.95
2018-12-20T05:01:58.221Z,89.25
2018-12-20T05:02:58.438Z,89.15
2018-12-20T05:03:58.236Z,89.77
2018-12-20T05:04:58.550Z,89.25
2018-12-20T05:05:58.230Z,88.95
2018-12-20T05:06:58.453Z,88.74
2018-12-20T05:07:58.160Z,88.84
2018-12-20T05:08:58.132Z,89.05
2018-12-20T05:09:58.312Z,88.64
2018-12-20T05:10:58.386Z,88.64
2018-12-20T05:11:58.477Z,88.33
2018-12-20T05:12:58.137Z,89.05
2018-12-20T05:13:58.292Z,89.15
2018-12-20T05:14:58.214Z,88.33
2018-12-20T05:15:58.069Z,88.33
2018-12-20T05:16:58.069Z,88.43
2018-12-20T05:17:58.297Z,88.53
2018-12-20T05:18:58.079Z,88.64
2018-12-20T05:19:58.060Z,88.64
2018-12-20T05:20:58.179Z,88.84
2018-12-20T05:21:58.015Z,88.95
2018-12-20T05:22:57.985Z,88.74
2018-12-20T05:23:57.976Z,88.49
2018-12-20T05:24:57.957Z,88.23
2018-12-20T05:25:58.218Z,88.33
2018-12-20T05:26:57.957Z,88.29
2018-12-20T05:27:57.937Z,87.98
2018-12-20T05:28:57.943Z,88.08
2018-12-20T05:29:58.131Z,88.08
2018-12-20T05:30:57.929Z,87.81
2018-12-20T05:31:58.140Z,87.87
2018-12-20T05:32:58.046Z,87.46
2018-12-20T05:33:57.863Z,87.19
2018-12-20T05:34:58.245Z,87.15
2018-12-20T05:35:57.994Z,86.95
2018-12-20T05:36:57.864Z,86.95
2018-12-20T05:37:58.029Z,86.64
2018-12-20T05:38:58.049Z,86.74
2018-12-20T05:39:57.920Z,86.95
2018-12-20T05:40:57.818Z,86.85
2018-12-20T05:41:57.804Z,87.05
2018-12-20T05:42:57.765Z,87.15
2018-12-20T05:43:57.751Z,86.95
2018-12-20T05:44:57.751Z,86.88
2018-12-20T05:46:04.486Z,87.26
2018-12-20T05:46:58.949Z,86.99
2018-12-20T05:47:58.066Z,86.64
2018-12-20T05:48:57.768Z,86.79
2018-12-20T05:49:57.693Z,86.88
2018-12-20T05:50:57.708Z,87.09
2018-12-20T05:51:57.702Z,86.79
2018-12-20T05:52:57.699Z,86.79
2018-12-20T05:53:57.956Z,86.99
2018-12-20T05:54:57.637Z,86.99
2018-12-20T05:55:57.685Z,86.99
2018-12-20T05:56:57.679Z,86.88
2018-12-20T05:57:57.661Z,86.37
2018-12-20T05:58:57.759Z,86.47
2018-12-20T05:59:57.834Z,86.06
2018-12-20T06:00:57.817Z,86.37
2018-12-20T06:01:57.728Z,86.58
2018-12-20T06:02:57.563Z,86.37
2018-12-20T06:03:57.635Z,85.86
2018-12-20T06:04:57.617Z,86.06
2018-12-20T06:05:57.702Z,86.06
2018-12-20T06:06:57.551Z,86.16
2018-12-20T06:07:57.499Z,86.37
2018-12-20T06:08:57.680Z,86.37
2018-12-20T06:09:57.524Z,85.75
2018-12-20T06:10:57.474Z,85.75
2018-12-20T06:11:57.648Z,85.24
2018-12-20T06:12:57.672Z,85.65
2018-12-20T06:13:57.439Z,85.79
2018-12-20T06:14:57.595Z,85.75
2018-12-20T06:15:57.425Z,85.69
2018-12-20T06:16:57.399Z,85.79
2018-12-20T06:17:57.653Z,85.59
2018-12-20T06:18:57.515Z,85.79
2018-12-20T06:19:57.581Z,85.79
2018-12-20T06:20:57.370Z,85.49
2018-12-20T06:21:57.360Z,85.79
2018-12-20T06:22:57.374Z,85.79
2018-12-20T06:23:57.335Z,85.69
2018-12-20T06:24:57.347Z,85.59
2018-12-20T06:25:57.366Z,85.38
2018-12-20T06:26:57.318Z,85.79
2018-12-20T06:27:57.283Z,85.49
2018-12-20T06:28:57.291Z,85.38
2018-12-20T06:29:57.268Z,85.49
2018-12-20T06:30:57.757Z,85.79
2018-12-20T06:31:57.263Z,85.59
2018-12-20T06:32:57.280Z,84.56
2018-12-20T06:33:57.247Z,84.87
2018-12-20T06:34:57.213Z,85.38
2018-12-20T06:35:57.207Z,85.69
2018-12-20T06:36:57.201Z,86.04
2018-12-20T06:37:57.205Z,85.73
2018-12-20T06:38:57.203Z,85.63
2018-12-20T06:39:57.185Z,85.63
2018-12-20T06:40:57.157Z,85.69
2018-12-20T06:41:57.138Z,85.63
2018-12-20T06:42:57.137Z,85.63
2018-12-20T06:43:57.124Z,85.42
2018-12-20T06:44:57.135Z,85.83
2018-12-20T06:45:57.128Z,85.42
2018-12-20T06:46:57.092Z,85.63
2018-12-20T06:47:57.080Z,85.73
2018-12-20T06:48:57.088Z,85.63
2018-12-20T06:49:57.084Z,86.00
2018-12-20T06:50:57.076Z,85.73
2018-12-20T06:51:57.056Z,85.52
2018-12-20T06:52:57.035Z,85.22
2018-12-20T06:53:57.012Z,86.15
2018-12-20T06:54:57.007Z,85.22
2018-12-20T06:55:57.047Z,85.83
2018-12-20T06:56:56.979Z,85.52
2018-12-20T06:57:56.971Z,85.42
2018-12-20T06:58:56.986Z,85.01
2018-12-20T06:59:56.953Z,85.73
2018-12-20T07:00:56.933Z,85.52
2018-12-20T07:01:56.928Z,85.22
2018-12-20T07:02:56.915Z,85.94
2018-12-20T07:03:56.917Z,85.63
2018-12-20T07:04:56.904Z,84.70
2018-12-20T07:05:56.890Z,84.80
2018-12-20T07:06:56.875Z,85.22
2018-12-20T07:07:56.870Z,85.11
2018-12-20T07:08:56.873Z,85.22
2018-12-20T07:09:56.877Z,85.15
2018-12-20T07:10:56.831Z,85.05
2018-12-20T07:11:56.841Z,85.01
2018-12-20T07:12:56.812Z,85.01
2018-12-20T07:13:56.794Z,84.70
2018-12-20T07:14:56.809Z,85.31
2018-12-20T07:15:56.781Z,84.70
2018-12-20T07:16:56.784Z,84.59
2018-12-20T07:17:56.755Z,84.70
2018-12-20T07:18:56.748Z,84.59
2018-12-20T07:19:56.739Z,84.80
2018-12-20T07:20:56.728Z,84.59
2018-12-20T07:21:56.723Z,84.70
2018-12-20T07:22:56.716Z,84.39
2018-12-20T07:23:56.691Z,85.07
2018-12-20T07:24:56.673Z,84.25
2018-12-20T07:25:56.695Z,84.14
2018-12-20T07:26:56.657Z,84.14
2018-12-20T07:27:56.648Z,83.63
2018-12-20T07:28:56.706Z,83.63
2018-12-20T07:29:56.627Z,84.05
2018-12-20T07:30:56.613Z,84.97
2018-12-20T07:31:56.621Z,84.56
2018-12-20T07:32:56.595Z,84.66
2018-12-20T07:33:56.582Z,83.63
2018-12-20T07:34:56.574Z,84.25
2018-12-20T07:35:56.594Z,83.73
2018-12-20T07:36:56.563Z,85.07
2018-12-20T07:37:56.543Z,83.84
2018-12-20T07:38:56.557Z,84.05
2018-12-20T07:39:56.524Z,84.97
2018-12-20T07:40:56.547Z,84.35
2018-12-20T07:41:56.505Z,82.91
2018-12-20T07:42:56.497Z,83.84
2018-12-20T07:43:56.470Z,83.94
2018-12-20T07:44:56.490Z,83.80
2018-12-20T07:45:56.461Z,83.22
2018-12-20T07:46:56.452Z,83.28
2018-12-20T07:47:56.459Z,83.18
2018-12-20T07:48:56.435Z,83.73
2018-12-20T07:49:56.449Z,83.28
2018-12-20T07:50:56.466Z,84.00
2018-12-20T07:51:56.416Z,83.42
2018-12-20T07:52:56.391Z,83.07
2018-12-20T07:53:56.371Z,83.73
2018-12-20T07:54:56.407Z,83.70
2018-12-20T07:55:56.349Z,83.07
2018-12-20T07:56:56.342Z,83.70
2018-12-20T07:57:56.321Z,83.28
2018-12-20T07:58:56.325Z,83.39
2018-12-20T07:59:56.315Z,83.07
2018-12-20T08:00:56.326Z,82.97
2018-12-20T08:01:56.310Z,83.18
2018-12-20T08:02:56.376Z,82.56
2018-12-20T08:03:56.263Z,82.87
2018-12-20T08:04:56.255Z,82.87
2018-12-20T08:05:56.248Z,82.56
2018-12-20T08:06:56.253Z,82.46
2018-12-20T08:07:56.273Z,82.97
2018-12-20T08:08:56.210Z,82.35
2018-12-20T08:09:56.225Z,82.35
2018-12-20T08:10:56.184Z,82.15
2018-12-20T08:11:56.217Z,83.18
2018-12-20T08:12:56.203Z,83.28
2018-12-20T08:13:56.168Z,83.18
2018-12-20T08:14:56.140Z,83.49
2018-12-20T08:15:56.153Z,83.28
2018-12-20T08:16:56.136Z,82.97
2018-12-20T08:17:56.152Z,84.11
2018-12-20T08:18:56.123Z,83.70
2018-12-20T08:19:56.091Z,83.18
2018-12-20T08:20:56.087Z,83.07
2018-12-20T08:21:56.081Z,83.70
2018-12-20T08:22:56.083Z,83.39
2018-12-20T08:23:56.065Z,83.28
2018-12-20T08:24:56.039Z,83.70
2018-12-20T08:25:56.045Z,84.11
2018-12-20T08:26:56.054Z,83.65
2018-12-20T08:27:56.015Z,83.76
2018-12-20T08:28:56.010Z,84.93
2018-12-20T08:29:55.979Z,84.11
2018-12-20T08:30:55.985Z,83.86
2018-12-20T08:31:55.977Z,83.86
2018-12-20T08:32:55.953Z,83.65
2018-12-20T08:33:55.959Z,83.97
2018-12-20T08:34:55.948Z,84.07
2018-12-20T08:35:55.919Z,83.97
2018-12-20T08:36:55.913Z,83.65
2018-12-20T08:37:55.896Z,84.27
2018-12-20T08:38:55.908Z,83.65
2018-12-20T08:39:55.878Z,84.17
2018-12-20T08:40:55.890Z,84.58
2018-12-20T08:41:55.867Z,84.38
2018-12-20T08:42:55.847Z,83.65
2018-12-20T08:43:55.848Z,83.65
2018-12-20T08:44:55.855Z,83.76
2018-12-20T08:45:55.850Z,83.86
2018-12-20T08:46:55.806Z,83.65
2018-12-20T08:47:55.796Z,83.97
2018-12-20T08:48:55.783Z,84.07
2018-12-20T08:49:55.793Z,84.17
2018-12-20T08:50:55.793Z,83.97
2018-12-20T08:51:55.755Z,83.86
2018-12-20T08:52:55.751Z,83.55
2018-12-20T08:53:55.764Z,83.45
2018-12-20T08:54:55.738Z,83.86
2018-12-20T08:55:55.720Z,83.86
2018-12-20T08:56:55.695Z,83.86
2018-12-20T08:57:55.682Z,83.55
2018-12-20T08:58:55.697Z,83.65
2018-12-20T08:59:55.687Z,83.86
2018-12-20T09:00:55.661Z,83.97
2018-12-20T09:01:55.651Z,83.51
2018-12-20T09:02:55.643Z,84.17
2018-12-20T09:03:55.635Z,83.55
2018-12-20T09:04:55.647Z,83.76
2018-12-20T09:05:55.635Z,84.48
2018-12-20T09:06:55.589Z,83.35
2018-12-20T09:07:55.614Z,83.65
2018-12-20T09:08:55.569Z,83.65
2018-12-20T09:09:55.563Z,83.86
2018-12-20T09:10:55.653Z,83.14
2018-12-20T09:11:55.545Z,83.65
2018-12-20T09:12:55.541Z,83.76
2018-12-20T09:13:55.525Z,83.86
2018-12-20T09:14:55.513Z,83.14
2018-12-20T09:15:55.520Z,83.62
2018-12-20T09:17:02.661Z,84.23
2018-12-20T09:17:56.474Z,83.65
2018-12-20T09:18:55.455Z,83.76
2018-12-20T09:19:55.451Z,83.76
2018-12-20T09:20:55.462Z,83.25
2018-12-20T09:21:55.446Z,83.35
2018-12-20T09:22:55.434Z,84.13
2018-12-20T09:23:55.421Z,83.72
2018-12-20T09:24:55.400Z,83.55
2018-12-20T09:25:55.415Z,84.03
2018-12-20T09:26:55.420Z,83.65
2018-12-20T09:27:55.368Z,83.62
2018-12-20T09:28:55.355Z,83.86
2018-12-20T09:29:55.346Z,83.45
2018-12-20T09:30:55.351Z,83.55
2018-12-20T09:31:55.328Z,83.62
2018-12-20T09:32:55.356Z,83.45
2018-12-20T09:33:55.298Z,83.72
2018-12-20T09:34:55.295Z,84.34
2018-12-20T09:35:55.282Z,83.97
2018-12-20T09:36:55.283Z,84.13
2018-12-20T09:37:55.290Z,83.65
2018-12-20T09:38:55.262Z,83.92
2018-12-20T09:39:55.236Z,83.62
2018-12-20T09:40:55.240Z,84.34
2018-12-20T09:41:55.227Z,83.83
2018-12-20T09:42:55.219Z,84.03
2018-12-20T09:43:55.204Z,83.62
2018-12-20T09:44:55.193Z,84.03
2018-12-20T09:45:55.182Z,83.31
2018-12-20T09:46:55.184Z,82.90
2018-12-20T09:47:55.152Z,83.92
2018-12-20T09:48:55.156Z,83.11
2018-12-20T09:49:55.157Z,83.20
2018-12-20T09:50:55.152Z,82.39
2018-12-20T09:51:55.123Z,82.45
2018-12-20T09:52:55.100Z,81.87
2018-12-20T09:53:55.098Z,82.04
2018-12-20T09:54:55.079Z,81.62
2018-12-20T09:55:55.084Z,81.83
2018-12-20T09:56:55.069Z,81.93
2018-12-20T09:57:55.050Z,82.04
2018-12-20T09:58:55.030Z,82.24
2018-12-20T09:59:55.038Z,81.52
2018-12-20T10:00:55.009Z,81.52
2018-12-20T10:01:55.005Z,81.67
2018-12-20T10:02:55.016Z,81.52
2018-12-20T10:03:54.995Z,81.52
2018-12-20T10:04:54.967Z,81.01
2018-12-20T10:05:54.960Z,81.21
2018-12-20T10:06:54.960Z,81.42
2018-12-20T10:07:54.946Z,81.21
2018-12-20T10:08:54.931Z,80.80
2018-12-20T10:09:54.923Z,80.60
2018-12-20T10:10:54.905Z,80.56
2018-12-20T10:11:54.911Z,80.46
2018-12-20T10:12:54.913Z,80.35
2018-12-20T10:13:54.878Z,80.35
2018-12-20T10:14:54.891Z,80.87
2018-12-20T10:15:54.851Z,80.56
2018-12-20T10:16:54.842Z,80.77
2018-12-20T10:17:54.854Z,79.53
2018-12-20T10:18:54.811Z,79.02
2018-12-20T10:19:54.824Z,79.02
2018-12-20T10:20:54.813Z,79.33
2018-12-20T10:21:54.789Z,79.02
2018-12-20T10:22:54.816Z,79.19
2018-12-20T10:23:54.760Z,79.02
2018-12-20T10:24:54.757Z,79.70
2018-12-20T10:25:54.741Z,78.78
2018-12-20T10:26:54.737Z,80.21
2018-12-20T10:27:54.719Z,79.39
2018-12-20T10:28:54.764Z,79.29
2018-12-20T10:29:54.702Z,78.36
2018-12-20T10:30:54.687Z,79.29
2018-12-20T10:31:54.782Z,79.60
2018-12-20T10:32:54.670Z,79.29
2018-12-20T10:33:54.669Z,78.57
2018-12-20T10:34:54.660Z,78.88
2018-12-20T10:35:54.680Z,79.19
2018-12-20T10:36:54.623Z,78.33
2018-12-20T10:37:54.617Z,79.08
2018-12-20T10:38:54.646Z,78.16
2018-12-20T10:39:54.596Z,78.88
2018-12-20T10:40:54.592Z,78.67
2018-12-20T10:41:54.579Z,77.95
2018-12-20T10:42:54.560Z,78.27
2018-12-20T10:43:54.568Z,78.02
2018-12-20T10:44:54.537Z,78.33
2018-12-20T10:45:54.552Z,77.92
2018-12-20T10:46:54.530Z,77.92
2018-12-20T10:47:54.530Z,76.68
2018-12-20T10:48:54.502Z,76.68
2018-12-20T10:49:54.518Z,77.40
2018-12-20T10:50:54.480Z,77.61
2018-12-20T10:51:54.482Z,78.12
2018-12-20T10:52:54.453Z,76.24
2018-12-20T10:53:54.458Z,76.48
2018-12-20T10:54:54.440Z,76.24
2018-12-20T10:55:54.418Z,76.55
2018-12-20T10:56:54.411Z,77.26
2018-12-20T10:57:54.425Z,76.55
2018-12-20T10:58:54.423Z,75.62
2018-12-20T10:59:54.402Z,76.65
2018-12-20T11:00:54.377Z,77.88
2018-12-20T11:01:54.384Z,77.78
2018-12-20T11:02:54.351Z,76.65
2018-12-20T11:03:54.336Z,76.41
2018-12-20T11:04:54.346Z,75.93
2018-12-20T11:05:54.318Z,76.65
2018-12-20T11:06:54.308Z,76.20
2018-12-20T11:07:54.303Z,76.04
2018-12-20T11:08:54.307Z,75.38
2018-12-20T11:09:54.294Z,74.98
2018-12-20T11:10:54.275Z,74.66
2018-12-20T11:11:54.263Z,74.46
2018-12-20T11:12:54.242Z,74.66
2018-12-20T11:13:54.234Z,75.38
2018-12-20T11:14:54.214Z,75.11
2018-12-20T11:15:54.220Z,75.01
2018-12-20T11:16:54.199Z,75.42
2018-12-20T11:17:54.184Z,76.10
2018-12-20T11:18:54.193Z,75.21
2018-12-20T11:19:54.185Z,74.66
2018-12-20T11:20:54.178Z,76.10
2018-12-20T11:21:54.147Z,74.66
2018-12-20T11:22:54.133Z,74.77
2018-12-20T11:23:54.134Z,74.80
2018-12-20T11:24:54.121Z,74.87
2018-12-20T11:25:54.114Z,74.66
2018-12-20T11:26:54.084Z,75.62
2018-12-20T11:27:54.080Z,74.60
2018-12-20T11:28:54.067Z,76.41
2018-12-20T11:29:54.061Z,76.20
2018-12-20T11:30:54.071Z,75.32
2018-12-20T11:31:54.088Z,75.38
2018-12-20T11:32:54.031Z,75.42
2018-12-20T11:33:54.016Z,76.20
2018-12-20T11:34:53.996Z,74.70
2018-12-20T11:35:53.993Z,76.55
2018-12-20T11:36:54.000Z,75.32
2018-12-20T11:37:53.979Z,75.62
2018-12-20T11:38:54.019Z,74.57
2018-12-20T11:39:59.376Z,74.40
2018-12-20T11:40:54.932Z,74.80
2018-12-20T11:41:53.924Z,76.10
2018-12-20T11:42:53.919Z,74.87
2018-12-20T11:43:53.933Z,74.60
2018-12-20T11:44:53.900Z,76.45
2018-12-20T11:45:53.887Z,76.10
2018-12-20T11:46:53.884Z,76.45
2018-12-20T11:47:53.867Z,74.98
2018-12-20T11:48:53.847Z,76.14
2018-12-20T11:49:53.857Z,76.20
2018-12-20T11:50:53.878Z,75.90
2018-12-20T11:51:53.821Z,75.59
2018-12-20T11:52:53.818Z,75.28
2018-12-20T11:53:53.819Z,76.20
2018-12-20T11:54:54.282Z,76.00
2018-12-20T11:55:53.781Z,76.41
2018-12-20T11:56:53.771Z,76.45
2018-12-20T11:57:53.769Z,76.24
2018-12-20T11:58:53.754Z,76.34
2018-12-20T11:59:53.734Z,76.04
2018-12-20T12:00:53.733Z,76.10
2018-12-20T12:01:53.708Z,76.20
2018-12-20T12:02:53.721Z,76.00
2018-12-20T12:03:57.601Z,76.45
2018-12-20T12:04:53.702Z,75.79
2018-12-20T12:05:53.670Z,76.00
2018-12-20T12:06:53.679Z,76.31
2018-12-20T12:07:53.673Z,76.31
2018-12-20T12:08:53.664Z,76.31
2018-12-20T12:09:53.619Z,75.38
2018-12-20T12:10:53.624Z,74.77
2018-12-20T12:11:53.612Z,74.77
2018-12-20T12:12:53.605Z,75.38
2018-12-20T12:13:53.591Z,76.07
2018-12-20T12:14:53.602Z,74.98
2018-12-20T12:15:53.560Z,74.63
2018-12-20T12:16:53.580Z,75.38
2018-12-20T12:17:54.290Z,75.24
2018-12-20T12:18:53.527Z,74.57
2018-12-20T12:19:53.512Z,75.38
2018-12-20T12:20:53.525Z,74.87
2018-12-20T12:21:53.493Z,74.94
2018-12-20T12:22:53.516Z,75.04
2018-12-20T12:23:53.482Z,74.77
2018-12-20T12:24:53.463Z,73.71
2018-12-20T12:25:53.456Z,74.63
2018-12-20T12:26:53.464Z,75.24
2018-12-20T12:27:53.456Z,74.84
2018-12-20T12:28:53.446Z,74.53
2018-12-20T12:29:53.417Z,74.49
2018-12-20T12:30:53.405Z,74.94
2018-12-20T12:31:53.382Z,75.01
2018-12-20T12:32:53.389Z,73.27
2018-12-20T12:33:53.375Z,73.36
2018-12-20T12:34:53.382Z,73.78
2018-12-20T12:35:53.356Z,73.57
2018-12-20T12:36:53.343Z,73.16
2018-12-20T12:37:53.337Z,74.39
2018-12-20T12:38:53.324Z,73.68
2018-12-20T12:39:53.317Z,73.16
2018-12-20T12:40:53.329Z,73.27
2018-12-20T12:41:53.306Z,73.88
2018-12-20T12:42:53.286Z,72.65
2018-12-20T12:43:53.264Z,72.44
2018-12-20T12:44:53.283Z,73.78
2018-12-20T12:45:53.252Z,72.89
2018-12-20T12:46:53.235Z,73.10
2018-12-20T12:47:53.237Z,72.65
2018-12-20T12:48:53.208Z,72.48
2018-12-20T12:49:53.193Z,72.78
2018-12-20T12:50:53.209Z,72.99
2018-12-20T12:51:53.543Z,72.78